Time;durP1;ratioP1;P1;durP2;ratioP2;P2;SDS_P1;SDS_P2;PMS_P1;PMS_P2;Temp;Humidity;BMP_temperature;BMP_pressure;BME280_temperature;BME280_humidity;BME280_pressure;Samples;Min_cycle;Max_cycle;Signal;HPM_P1;HPM_P2
2022/04/07 00:01:17;;;;;;;2.80;1.30;;;8.80;99.90;;;;;;5076933;28;20016;-62
2022/04/07 00:03:43;;;;;;;1.73;1.23;;;8.90;99.90;;;;;;5084284;28;20082;-62
2022/04/07 00:06:12;;;;;;;2.22;1.25;;;8.90;99.90;;;;;;5064898;28;20052;-62
2022/04/07 00:08:38;;;;;;;3.58;1.40;;;8.90;99.90;;;;;;5080370;28;20028;-62
2022/04/07 00:11:04;;;;;;;2.58;1.25;;;8.90;99.90;;;;;;5077247;28;20095;-62
2022/04/07 00:13:30;;;;;;;3.65;1.45;;;9.00;99.90;;;;;;5077832;28;20115;-62
2022/04/07 00:15:58;;;;;;;3.80;1.63;;;9.00;99.90;;;;;;5078656;28;20025;-62
2022/04/07 00:18:23;;;;;;;2.25;1.00;;;9.00;99.90;;;;;;5080794;28;20020;-62
2022/04/07 00:20:50;;;;;;;3.28;1.40;;;8.90;99.90;;;;;;5080680;28;20113;-62
2022/04/07 00:23:16;;;;;;;2.40;1.48;;;8.90;99.90;;;;;;5074503;28;20081;-62
2022/04/07 00:25:42;;;;;;;3.70;1.55;;;8.80;99.90;;;;;;5084674;28;20032;-62
2022/04/07 00:28:07;;;;;;;2.85;1.08;;;8.80;99.90;;;;;;5080686;28;20056;-62
2022/04/07 00:30:34;;;;;;;3.50;1.27;;;8.80;99.90;;;;;;5078246;28;20021;-62
2022/04/07 00:33:00;;;;;;;3.42;1.10;;;8.80;99.90;;;;;;5085322;28;20020;-62
2022/04/07 00:35:26;;;;;;;4.70;1.83;;;8.80;99.90;;;;;;5080587;28;20357;-62
2022/04/07 00:37:52;;;;;;;3.70;1.60;;;8.80;99.90;;;;;;5082743;28;20158;-62
2022/04/07 00:40:18;;;;;;;2.85;1.10;;;8.70;99.90;;;;;;5065651;28;20134;-61
2022/04/07 00:42:48;;;;;;;3.03;1.33;;;8.60;99.90;;;;;;5082531;28;20017;-61
2022/04/07 00:45:15;;;;;;;0.60;0.60;;;8.50;99.90;;;;;;5074178;28;20017;-61
2022/04/07 00:47:42;;;;;;;1.98;1.33;;;8.50;99.90;;;;;;5078509;28;20484;-61
2022/04/07 00:50:10;;;;;;;1.25;0.90;;;8.40;99.90;;;;;;5082201;28;20107;-62
2022/04/07 00:52:41;;;;;;;2.20;1.02;;;8.40;99.90;;;;;;5080130;28;20046;-62
2022/04/07 00:55:07;;;;;;;1.05;0.80;;;8.40;99.90;;;;;;5084357;28;20103;-62
2022/04/07 00:57:34;;;;;;;0.60;0.60;;;8.40;99.90;;;;;;5079490;28;20036;-62
2022/04/07 01:00:00;;;;;;;2.50;0.93;;;8.50;99.90;;;;;;5080895;28;20116;-62
2022/04/07 01:02:25;;;;;;;0.80;0.80;;;8.50;99.90;;;;;;5079764;28;20020;-62
2022/04/07 01:04:51;;;;;;;1.52;0.93;;;8.60;99.90;;;;;;5081243;28;20033;-62
2022/04/07 01:07:18;;;;;;;2.50;1.13;;;8.60;99.90;;;;;;5084971;28;20023;-62
2022/04/07 01:09:43;;;;;;;5.53;1.65;;;8.60;99.90;;;;;;5078071;28;20028;-62
2022/04/07 01:12:10;;;;;;;3.03;0.95;;;8.60;99.90;;;;;;5080828;28;20029;-62
2022/04/07 01:14:48;;;;;;;2.83;1.23;;;8.70;99.90;;;;;;5080768;28;20109;-62
2022/04/07 01:17:14;;;;;;;1.05;0.80;;;8.60;99.90;;;;;;5080876;28;20020;-62
2022/04/07 01:19:40;;;;;;;3.25;1.17;;;8.50;99.90;;;;;;5082934;28;20046;-62
2022/04/07 01:22:05;;;;;;;10.63;1.23;;;8.70;99.90;;;;;;5070303;28;20025;-62
2022/04/07 01:24:31;;;;;;;3.90;1.40;;;8.70;99.90;;;;;;5082284;28;20043;-62
2022/04/07 01:26:57;;;;;;;5.30;1.75;;;8.60;99.90;;;;;;5083063;28;20048;-62
2022/04/07 01:29:25;;;;;;;4.72;1.63;;;8.60;99.90;;;;;;5079170;28;20066;-62
2022/04/07 01:31:51;;;;;;;1.70;1.10;;;8.70;99.90;;;;;;5076899;28;20073;-62
2022/04/07 01:34:18;;;;;;;1.33;0.90;;;8.70;99.90;;;;;;5086180;28;20028;-62
2022/04/07 01:36:46;;;;;;;1.70;1.05;;;8.70;99.90;;;;;;5085002;28;20024;-62
2022/04/07 01:39:13;;;;;;;1.80;1.08;;;8.80;99.90;;;;;;5083098;28;20052;-62
2022/04/07 01:41:41;;;;;;;10.63;1.45;;;8.90;99.90;;;;;;5083313;28;20033;-62
2022/04/07 01:44:09;;;;;;;6.45;1.58;;;8.90;99.90;;;;;;5081001;28;20031;-62
2022/04/07 01:46:35;;;;;;;2.03;1.02;;;8.90;99.90;;;;;;5082067;28;20858;-62
2022/04/07 01:49:02;;;;;;;4.18;1.55;;;8.90;99.90;;;;;;5079012;28;20488;-62
2022/04/07 01:51:29;;;;;;;2.13;0.95;;;9.00;99.90;;;;;;5079224;28;20036;-62
2022/04/07 01:53:55;;;;;;;3.13;1.30;;;9.10;99.90;;;;;;5084033;28;20031;-62
2022/04/07 01:56:22;;;;;;;1.17;0.88;;;9.10;99.90;;;;;;5078824;28;20378;-62
2022/04/07 01:58:48;;;;;;;1.63;0.88;;;9.10;99.90;;;;;;5076416;28;20058;-62
2022/04/07 02:01:17;;;;;;;1.73;0.80;;;9.20;99.90;;;;;;5075929;28;20040;-62
2022/04/07 02:03:45;;;;;;;2.20;1.00;;;9.20;99.90;;;;;;5079614;28;20036;-63
2022/04/07 02:06:16;;;;;;;1.23;0.93;;;9.10;99.90;;;;;;5082865;28;20103;-62
2022/04/07 02:08:42;;;;;;;3.75;1.60;;;9.10;99.90;;;;;;5080696;28;20032;-62
2022/04/07 02:11:10;;;;;;;2.05;0.93;;;9.20;99.90;;;;;;5082099;28;20021;-62
2022/04/07 02:13:38;;;;;;;2.85;1.23;;;9.20;99.90;;;;;;5078037;28;20017;-62
2022/04/07 02:16:05;;;;;;;1.00;0.80;;;9.20;99.90;;;;;;5081075;28;20020;-62
2022/04/07 02:18:31;;;;;;;1.65;1.00;;;9.20;99.90;;;;;;5082445;28;20029;-62
2022/04/07 02:20:56;;;;;;;4.50;0.90;;;9.30;99.90;;;;;;5080225;28;20408;-62
2022/04/07 02:23:22;;;;;;;1.00;0.70;;;9.20;99.90;;;;;;5081313;28;20028;-62
2022/04/07 02:25:48;;;;;;;2.70;1.10;;;9.40;99.90;;;;;;5082799;28;20040;-62
2022/04/07 02:28:14;;;;;;;2.55;1.05;;;9.40;99.90;;;;;;5079187;28;20080;-62
2022/04/07 02:30:39;;;;;;;4.95;0.82;;;9.40;99.90;;;;;;5078251;28;20021;-62
2022/04/07 02:33:05;;;;;;;1.58;0.75;;;9.40;99.90;;;;;;5083478;28;20024;-62
2022/04/07 02:35:31;;;;;;;2.78;1.35;;;9.30;99.90;;;;;;5063545;28;20024;-62
2022/04/07 02:38:00;;;;;;;1.02;0.73;;;9.30;99.90;;;;;;5087637;28;20091;-62
2022/04/07 02:40:25;;;;;;;1.92;0.95;;;9.20;99.90;;;;;;5082363;28;20058;-62
2022/04/07 02:42:51;;;;;;;2.00;0.80;;;9.10;99.90;;;;;;5077312;28;20024;-62
2022/04/07 02:45:17;;;;;;;2.75;1.52;;;9.10;99.90;;;;;;5077370;28;20078;-62
2022/04/07 02:47:43;;;;;;;3.30;1.38;;;9.00;99.90;;;;;;5082166;28;20020;-62
2022/04/07 02:50:08;;;;;;;1.40;0.80;;;9.00;99.90;;;;;;5079609;28;20016;-62
2022/04/07 02:52:34;;;;;;;1.90;1.00;;;9.10;99.90;;;;;;5078168;28;20027;-62
2022/04/07 02:55:00;;;;;;;6.20;1.27;;;9.00;99.90;;;;;;5075881;28;20020;-62
2022/04/07 02:57:30;;;;;;;2.65;1.20;;;9.00;99.90;;;;;;5084700;28;20593;-62
2022/04/07 02:59:58;;;;;;;2.28;1.13;;;9.00;99.90;;;;;;5077849;28;20471;-62
2022/04/07 03:02:24;;;;;;;1.42;0.95;;;9.10;99.90;;;;;;5077343;28;20456;-62
2022/04/07 03:04:50;;;;;;;12.30;1.15;;;9.10;99.90;;;;;;5079927;28;20121;-62
2022/04/07 03:07:15;;;;;;;2.03;0.88;;;9.10;99.90;;;;;;5078894;28;20111;-62
2022/04/07 03:09:41;;;;;;;2.60;1.20;;;9.00;99.90;;;;;;5078085;28;20028;-62
2022/04/07 03:12:07;;;;;;;2.15;1.05;;;9.00;99.90;;;;;;5079566;28;20050;-62
2022/04/07 03:14:33;;;;;;;2.55;1.02;;;9.00;99.90;;;;;;5079180;28;20383;-62
2022/04/07 03:16:59;;;;;;;2.97;1.17;;;9.00;99.90;;;;;;5080405;28;20024;-62
2022/04/07 03:19:24;;;;;;;4.07;1.63;;;9.00;99.90;;;;;;5080590;28;20455;-62
2022/04/07 03:21:50;;;;;;;3.55;1.20;;;8.90;99.90;;;;;;5078876;28;20023;-62
2022/04/07 03:24:15;;;;;;;1.55;1.00;;;9.00;99.90;;;;;;5077243;28;20020;-62
2022/04/07 03:26:41;;;;;;;3.67;1.08;;;9.00;99.90;;;;;;5066524;28;20048;-62
2022/04/07 03:29:07;;;;;;;2.17;1.25;;;8.90;99.90;;;;;;5076783;28;20036;-62
2022/04/07 03:31:33;;;;;;;2.15;1.08;;;8.90;99.90;;;;;;5081977;28;20065;-62
2022/04/07 03:33:58;;;;;;;4.28;1.00;;;8.90;99.90;;;;;;5079749;28;20033;-62
2022/04/07 03:36:24;;;;;;;2.92;1.20;;;8.90;99.90;;;;;;5086248;28;20020;-62
2022/04/07 03:38:51;;;;;;;1.42;0.90;;;9.00;99.90;;;;;;5079061;28;20033;-62
2022/04/07 03:41:17;;;;;;;2.72;1.15;;;9.00;99.90;;;;;;5077772;28;20016;-62
2022/04/07 03:43:43;;;;;;;0.80;0.80;;;9.00;99.90;;;;;;5078004;28;20028;-63
2022/04/07 03:46:09;;;;;;;1.77;0.90;;;9.00;99.90;;;;;;5081566;28;20055;-63
2022/04/07 03:48:35;;;;;;;1.50;0.98;;;9.00;99.90;;;;;;5084173;28;20083;-63
2022/04/07 03:51:01;;;;;;;2.40;1.10;;;9.00;99.90;;;;;;5077832;28;20473;-63
2022/04/07 03:53:27;;;;;;;3.78;1.27;;;9.10;99.90;;;;;;5079152;28;20068;-63
2022/04/07 03:55:52;;;;;;;1.27;0.93;;;9.10;99.90;;;;;;5075296;28;20029;-63
2022/04/07 03:58:18;;;;;;;2.63;1.20;;;9.20;99.90;;;;;;5077512;28;20063;-63
2022/04/07 04:00:43;;;;;;;2.22;1.05;;;9.30;99.90;;;;;;5078621;28;20036;-62
2022/04/07 04:03:09;;;;;;;1.67;0.95;;;9.30;99.90;;;;;;5059214;28;20475;-62
2022/04/07 04:05:34;;;;;;;2.30;1.10;;;9.40;99.90;;;;;;5079667;28;20030;-63
2022/04/07 04:08:00;;;;;;;2.92;1.15;;;9.40;99.90;;;;;;5074332;28;20056;-62
2022/04/07 04:10:26;;;;;;;1.77;0.88;;;9.50;99.90;;;;;;5078853;28;20032;-62
2022/04/07 04:12:52;;;;;;;2.75;0.90;;;9.50;99.90;;;;;;5077169;28;20472;-62
2022/04/07 04:15:18;;;;;;;3.17;1.00;;;9.50;99.90;;;;;;5077974;28;20028;-62
2022/04/07 04:17:44;;;;;;;1.75;0.90;;;9.60;99.90;;;;;;5079666;28;20067;-62
2022/04/07 04:20:10;;;;;;;1.58;1.05;;;9.50;99.90;;;;;;5077623;28;20028;-62
2022/04/07 04:22:36;;;;;;;1.08;0.82;;;9.50;99.90;;;;;;5080489;28;20048;-62
2022/04/07 04:25:02;;;;;;;1.23;0.73;;;9.50;99.90;;;;;;5086379;28;20520;-62
2022/04/07 04:27:28;;;;;;;2.25;0.98;;;9.50;99.90;;;;;;5079410;28;20048;-62
2022/04/07 04:29:54;;;;;;;2.03;1.05;;;9.50;99.90;;;;;;5082907;28;20040;-62
2022/04/07 04:32:19;;;;;;;3.05;0.98;;;9.50;99.90;;;;;;5078324;28;20111;-62
2022/04/07 04:34:45;;;;;;;2.88;1.27;;;9.50;99.90;;;;;;5077371;28;20019;-62
2022/04/07 04:37:10;;;;;;;1.90;0.80;;;9.50;99.90;;;;;;5082770;28;20025;-62
2022/04/07 04:39:37;;;;;;;2.03;1.02;;;9.60;99.90;;;;;;5086178;28;20028;-62
2022/04/07 04:42:04;;;;;;;0.82;0.70;;;9.60;99.90;;;;;;5081391;28;20101;-62
2022/04/07 04:44:30;;;;;;;0.77;0.60;;;9.60;99.90;;;;;;5084738;28;20028;-62
2022/04/07 04:46:55;;;;;;;1.17;0.95;;;9.70;99.90;;;;;;5080199;28;20039;-62
2022/04/07 04:49:21;;;;;;;2.28;1.10;;;9.70;99.90;;;;;;5080253;28;20032;-62
2022/04/07 04:51:47;;;;;;;1.45;0.80;;;9.70;99.90;;;;;;5080671;28;20467;-62
2022/04/07 04:54:13;;;;;;;1.38;0.80;;;9.80;99.90;;;;;;5085513;28;20016;-62
2022/04/07 04:56:42;;;;;;;2.67;0.98;;;9.80;99.90;;;;;;5072669;28;20032;-62
2022/04/07 04:59:08;;;;;;;0.77;0.70;;;9.80;99.90;;;;;;5079371;28;20035;-62
2022/04/07 05:01:33;;;;;;;4.05;1.33;;;9.80;99.90;;;;;;5064027;28;20032;-62
2022/04/07 05:03:59;;;;;;;1.52;0.73;;;9.80;99.90;;;;;;5084209;28;20024;-62
2022/04/07 05:06:25;;;;;;;1.95;0.85;;;9.60;99.90;;;;;;5078848;28;20105;-62
2022/04/07 05:08:51;;;;;;;5.57;1.00;;;9.50;99.90;;;;;;5067452;28;20031;-62
2022/04/07 05:11:16;;;;;;;1.38;0.90;;;9.40;99.90;;;;;;5083075;28;20387;-62
2022/04/07 05:13:42;;;;;;;1.52;0.90;;;9.30;99.90;;;;;;5084958;28;20016;-62
2022/04/07 05:16:15;;;;;;;0.85;0.70;;;9.20;99.90;;;;;;5087131;28;20379;-62
2022/04/07 05:18:46;;;;;;;1.00;0.70;;;9.10;99.90;;;;;;5083068;28;20073;-62
2022/04/07 05:21:13;;;;;;;6.22;1.17;;;9.00;99.90;;;;;;5082512;28;20038;-62
2022/04/07 05:23:39;;;;;;;2.15;1.00;;;8.90;99.90;;;;;;5076051;28;20055;-62
2022/04/07 05:26:04;;;;;;;2.03;0.90;;;8.90;99.90;;;;;;5079649;28;20080;-62
2022/04/07 05:28:30;;;;;;;2.20;1.00;;;8.80;99.90;;;;;;5083950;28;20040;-63
2022/04/07 05:30:56;;;;;;;1.15;0.80;;;8.80;99.90;;;;;;5084582;28;20067;-62
2022/04/07 05:33:21;;;;;;;1.95;1.10;;;8.70;99.90;;;;;;5086460;28;20263;-62
2022/04/07 05:35:47;;;;;;;3.28;1.08;;;8.70;99.90;;;;;;5084174;28;20056;-62
2022/04/07 05:38:13;;;;;;;2.70;1.20;;;8.60;99.90;;;;;;5078353;28;20017;-67
2022/04/07 05:40:39;;;;;;;1.52;0.93;;;8.70;99.90;;;;;;5080752;28;20032;-62
2022/04/07 05:43:05;;;;;;;1.73;0.68;;;8.70;99.90;;;;;;5083674;28;20024;-62
2022/04/07 05:45:31;;;;;;;1.50;0.93;;;8.70;99.90;;;;;;5081384;28;20483;-62
2022/04/07 05:47:57;;;;;;;2.67;1.13;;;8.70;99.90;;;;;;5083899;28;20016;-62
2022/04/07 05:50:23;;;;;;;1.73;0.90;;;8.90;99.90;;;;;;5078044;28;20095;-62
2022/04/07 05:52:48;;;;;;;0.55;0.52;;;8.90;99.90;;;;;;5083811;28;20386;-62
2022/04/07 05:55:14;;;;;;;2.22;0.95;;;8.90;99.90;;;;;;5076078;28;20021;-62
2022/04/07 05:57:40;;;;;;;3.38;1.40;;;8.90;99.90;;;;;;5081804;28;20039;-62
2022/04/07 06:00:08;;;;;;;2.40;1.15;;;8.90;99.90;;;;;;5080381;28;20069;-62
2022/04/07 06:02:33;;;;;;;1.58;0.80;;;8.90;99.90;;;;;;5085120;28;20032;-63
2022/04/07 06:04:59;;;;;;;2.53;0.93;;;8.90;99.90;;;;;;5086974;28;20383;-62
2022/04/07 06:07:24;;;;;;;2.65;1.15;;;9.00;99.90;;;;;;5084570;28;20074;-62
2022/04/07 06:09:50;;;;;;;1.05;0.80;;;9.00;99.90;;;;;;5072186;28;20389;-62
2022/04/07 06:12:16;;;;;;;1.65;0.90;;;9.00;99.90;;;;;;5082527;28;20459;-62
2022/04/07 06:14:41;;;;;;;1.92;0.93;;;9.10;99.90;;;;;;5083008;28;20032;-62
2022/04/07 06:17:07;;;;;;;1.10;0.80;;;9.10;99.90;;;;;;5079468;28;20116;-62
2022/04/07 06:19:32;;;;;;;1.83;1.02;;;9.20;99.90;;;;;;5085074;28;20035;-62
2022/04/07 06:21:58;;;;;;;1.58;0.90;;;9.20;99.90;;;;;;5080794;28;20130;-62
2022/04/07 06:24:24;;;;;;;2.45;1.08;;;9.30;99.90;;;;;;5084543;28;20016;-62
2022/04/07 06:26:49;;;;;;;1.15;0.80;;;9.40;99.90;;;;;;5079287;28;20088;-62
2022/04/07 06:29:16;;;;;;;2.70;1.25;;;9.50;99.90;;;;;;5078860;28;20035;-62
2022/04/07 06:31:41;;;;;;;1.20;0.70;;;9.40;99.90;;;;;;5077484;28;20043;-62
2022/04/07 06:34:07;;;;;;;0.70;0.70;;;9.40;99.90;;;;;;5079679;28;20016;-62
2022/04/07 06:36:32;;;;;;;2.47;0.90;;;9.30;99.90;;;;;;5082427;28;20101;-62
2022/04/07 06:38:58;;;;;;;1.33;0.95;;;9.30;99.90;;;;;;5076654;28;20395;-62
2022/04/07 06:41:24;;;;;;;1.20;0.90;;;9.30;99.90;;;;;;5079540;28;20108;-61
2022/04/07 06:43:49;;;;;;;2.13;1.05;;;9.20;99.90;;;;;;5080430;28;20028;-61
2022/04/07 06:46:15;;;;;;;1.20;0.75;;;9.20;99.90;;;;;;5080546;28;20464;-61
2022/04/07 06:48:42;;;;;;;2.15;0.90;;;9.10;99.90;;;;;;5083011;28;20032;-61
2022/04/07 06:51:09;;;;;;;2.83;1.20;;;9.10;99.90;;;;;;5075693;28;20414;-62
2022/04/07 06:53:35;;;;;;;1.30;0.80;;;9.10;99.90;;;;;;5083802;28;20109;-62
2022/04/07 06:56:00;;;;;;;2.10;1.08;;;9.00;99.90;;;;;;5078705;28;20036;-62
2022/04/07 06:58:26;;;;;;;1.95;0.95;;;9.00;99.90;;;;;;5077202;28;20024;-61
2022/04/07 07:00:51;;;;;;;1.63;0.85;;;9.00;99.90;;;;;;5076877;28;20024;-61
2022/04/07 07:03:17;;;;;;;2.05;0.90;;;9.00;99.90;;;;;;5081225;28;20016;-61
2022/04/07 07:05:44;;;;;;;2.85;1.10;;;9.00;99.90;;;;;;5075811;28;20108;-62
2022/04/07 07:08:29;;;;;;;4.82;0.90;;;9.00;99.90;;;;;;5076669;28;20467;-61
2022/04/07 07:10:55;;;;;;;1.38;0.80;;;9.20;99.90;;;;;;5081696;28;20395;-61
2022/04/07 07:13:21;;;;;;;1.30;0.95;;;9.30;99.90;;;;;;5074130;28;20027;-62
2022/04/07 07:15:48;;;;;;;4.57;1.25;;;9.40;99.90;;;;;;5081040;28;20019;-63
2022/04/07 07:18:14;;;;;;;1.98;0.70;;;9.50;99.90;;;;;;5079614;28;20034;-62
2022/04/07 07:20:39;;;;;;;1.92;0.80;;;9.50;99.90;;;;;;5082711;28;20103;-62
2022/04/07 07:23:06;;;;;;;2.92;1.85;;;9.70;99.90;;;;;;5085813;28;20017;-62
2022/04/07 07:25:32;;;;;;;2.72;1.10;;;9.70;99.90;;;;;;5078468;28;20111;-62
2022/04/07 07:27:59;;;;;;;3.20;1.40;;;9.60;99.90;;;;;;5079845;28;20107;-62
2022/04/07 07:30:25;;;;;;;1.23;0.80;;;9.60;99.90;;;;;;5078763;28;20483;-62
2022/04/07 07:32:51;;;;;;;1.05;0.90;;;9.60;99.90;;;;;;5081764;28;20119;-62
2022/04/07 07:35:18;;;;;;;0.95;0.75;;;9.60;99.90;;;;;;5078193;28;20044;-62
2022/04/07 07:37:49;;;;;;;1.20;0.93;;;9.60;99.90;;;;;;5070929;28;20009;-62
2022/04/07 07:40:15;;;;;;;2.60;1.23;;;9.60;99.90;;;;;;5071777;28;20460;-62
2022/04/07 07:42:42;;;;;;;1.00;0.73;;;9.40;99.90;;;;;;5069363;28;20020;-62
2022/04/07 07:45:08;;;;;;;3.13;1.27;;;9.40;99.90;;;;;;5077824;28;20036;-62
2022/04/07 07:47:34;;;;;;;2.15;1.00;;;9.30;99.90;;;;;;5080132;28;20023;-62
2022/04/07 07:50:01;;;;;;;2.25;0.90;;;9.30;99.90;;;;;;5084094;28;20439;-62
2022/04/07 07:52:27;;;;;;;3.40;1.17;;;9.30;99.90;;;;;;5079777;28;20023;-62
2022/04/07 07:54:53;;;;;;;4.22;0.95;;;9.20;99.90;;;;;;5075507;28;20028;-62
2022/04/07 07:57:19;;;;;;;2.63;0.98;;;9.20;99.90;;;;;;5073382;28;20051;-62
2022/04/07 07:59:45;;;;;;;0.75;0.73;;;9.20;99.90;;;;;;5072823;28;20036;-63
2022/04/07 08:02:11;;;;;;;0.93;0.77;;;9.10;99.90;;;;;;5077320;28;20039;-62
2022/04/07 08:04:36;;;;;;;1.88;0.88;;;9.10;99.90;;;;;;5079703;28;20900;-62
2022/04/07 08:07:03;;;;;;;2.20;1.00;;;9.10;99.90;;;;;;5078994;28;20047;-62
2022/04/07 08:09:28;;;;;;;1.65;0.80;;;9.20;99.90;;;;;;5078787;28;20472;-62
2022/04/07 08:11:54;;;;;;;1.25;0.73;;;9.20;99.90;;;;;;5077519;28;20104;-62
2022/04/07 08:14:20;;;;;;;1.80;0.88;;;9.30;99.90;;;;;;5077532;28;20075;-62
2022/04/07 08:16:45;;;;;;;1.58;0.80;;;9.50;99.90;;;;;;5076476;28;20021;-62
2022/04/07 08:19:11;;;;;;;0.85;0.73;;;9.60;99.90;;;;;;5077796;28;20444;-62
2022/04/07 08:21:37;;;;;;;0.98;0.75;;;9.70;99.90;;;;;;5074460;28;20035;-62
2022/04/07 08:24:06;;;;;;;2.38;0.90;;;9.60;99.90;;;;;;5086299;28;20051;-62
2022/04/07 08:26:31;;;;;;;1.88;0.80;;;9.30;99.90;;;;;;5080881;28;20449;-62
2022/04/07 08:28:57;;;;;;;1.73;0.88;;;9.30;99.90;;;;;;5078429;28;20039;-62
2022/04/07 08:31:23;;;;;;;2.22;0.90;;;9.20;99.90;;;;;;5078952;28;20023;-62
2022/04/07 08:33:49;;;;;;;1.23;0.80;;;9.20;99.90;;;;;;5077965;28;20020;-62
2022/04/07 08:36:15;;;;;;;3.15;1.15;;;9.30;99.90;;;;;;5062330;28;20111;-62
2022/04/07 08:38:40;;;;;;;0.75;0.63;;;9.40;99.90;;;;;;5077668;28;20035;-62
2022/04/07 08:41:09;;;;;;;1.38;0.90;;;9.40;99.90;;;;;;5071917;28;20078;-62
2022/04/07 08:43:38;;;;;;;1.10;0.77;;;9.50;99.90;;;;;;5076453;28;20085;-63
2022/04/07 08:46:07;;;;;;;0.60;0.60;;;9.60;99.90;;;;;;5082190;28;20073;-63
2022/04/07 08:48:44;;;;;;;1.85;0.82;;;9.80;99.90;;;;;;5081207;28;20371;-63
2022/04/07 08:51:11;;;;;;;1.95;0.98;;;9.80;99.90;;;;;;5079169;28;20040;-63
2022/04/07 08:53:39;;;;;;;0.63;0.63;;;9.90;99.90;;;;;;5082886;28;20531;-63
2022/04/07 08:56:06;;;;;;;1.27;0.80;;;9.80;99.90;;;;;;5080800;28;20031;-63
2022/04/07 08:58:32;;;;;;;0.50;0.50;;;9.80;99.90;;;;;;5074781;28;20056;-63
2022/04/07 09:00:59;;;;;;;2.30;1.05;;;9.70;99.90;;;;;;5083729;28;20148;-63
2022/04/07 09:03:25;;;;;;;0.98;0.80;;;9.70;99.90;;;;;;5079964;28;20374;-62
2022/04/07 09:06:02;;;;;;;0.82;0.70;;;9.60;99.90;;;;;;5075403;28;20035;-62
2022/04/07 09:08:30;;;;;;;5.20;0.70;;;9.60;99.90;;;;;;5081010;28;20028;-62
2022/04/07 09:10:58;;;;;;;0.93;0.70;;;9.60;99.90;;;;;;5076759;28;20111;-62
2022/04/07 09:13:24;;;;;;;0.60;0.60;;;9.60;99.90;;;;;;5079365;28;20134;-62
2022/04/07 09:15:49;;;;;;;1.02;0.70;;;9.60;99.90;;;;;;5087115;28;20106;-62
2022/04/07 09:18:24;;;;;;;0.60;0.60;;;9.70;99.90;;;;;;5086824;28;20024;-63
2022/04/07 09:20:50;;;;;;;0.70;0.70;;;9.80;99.90;;;;;;5084436;28;20024;-63
2022/04/07 09:23:19;;;;;;;1.10;0.65;;;9.90;99.90;;;;;;5087900;28;20056;-63
2022/04/07 09:25:49;;;;;;;0.73;0.70;;;10.10;99.90;;;;;;5085652;28;20073;-63
2022/04/07 09:28:32;;;;;;;1.20;0.77;;;10.20;99.90;;;;;;5082954;28;20101;-63
2022/04/07 09:30:59;;;;;;;1.65;0.93;;;10.30;99.90;;;;;;5069250;28;20027;-63
2022/04/07 09:33:26;;;;;;;0.60;0.60;;;10.30;99.90;;;;;;5085836;28;20028;-63
2022/04/07 09:36:07;;;;;;;1.20;0.73;;;10.30;99.90;;;;;;5086417;28;20433;-62
2022/04/07 09:38:34;;;;;;;0.80;0.70;;;10.50;99.90;;;;;;5086956;28;20040;-63
2022/04/07 09:41:13;;;;;;;0.90;0.60;;;10.70;99.90;;;;;;5081607;28;20051;-63
2022/04/07 09:43:54;;;;;;;2.83;0.95;;;10.90;99.90;;;;;;5084167;28;20052;-63
2022/04/07 09:46:21;;;;;;;0.77;0.70;;;10.90;99.90;;;;;;5082492;28;20047;-63
2022/04/07 09:49:11;;;;;;;0.85;0.68;;;10.70;99.90;;;;;;5078283;28;20028;-65
2022/04/07 09:51:47;;;;;;;0.50;0.50;;;8.70;99.90;;;;;;5073310;28;20491;-64
2022/04/07 09:54:17;;;;;;;0.60;0.60;;;8.10;99.90;;;;;;5083708;28;20522;-64
2022/04/07 09:56:45;;;;;;;0.88;0.85;;;7.90;99.90;;;;;;5079670;28;20055;-61
2022/04/07 09:59:14;;;;;;;0.70;0.70;;;7.80;99.90;;;;;;5088870;28;20043;-63
2022/04/07 10:01:39;;;;;;;1.02;0.70;;;7.90;99.90;;;;;;5077522;28;20075;-63
2022/04/07 10:04:06;;;;;;;0.60;0.60;;;7.90;99.90;;;;;;5071689;28;20378;-64
2022/04/07 10:06:35;;;;;;;1.05;0.98;;;7.80;99.90;;;;;;5074130;28;20055;-64
2022/04/07 10:09:04;;;;;;;0.70;0.70;;;7.80;99.90;;;;;;5086401;28;20024;-64
2022/04/07 10:11:33;;;;;;;2.35;1.00;;;7.80;99.90;;;;;;5079833;28;20043;-64
2022/04/07 10:14:00;;;;;;;0.77;0.77;;;7.90;99.90;;;;;;5074698;28;20029;-63
2022/04/07 10:16:27;;;;;;;0.95;0.68;;;7.90;99.90;;;;;;5081415;28;20024;-63
2022/04/07 10:19:18;;;;;;;1.90;1.05;;;7.90;99.90;;;;;;5080153;28;20057;-61
2022/04/07 10:21:50;;;;;;;1.95;0.82;;;7.90;99.90;;;;;;5072947;28;20035;-61
2022/04/07 10:24:37;;;;;;;0.60;0.60;;;8.20;99.90;;;;;;5072807;28;20031;-61
2022/04/07 10:27:08;;;;;;;1.85;0.90;;;8.30;99.90;;;;;;5067445;28;20059;-61
2022/04/07 10:29:34;;;;;;;1.20;0.63;;;8.30;99.90;;;;;;5070012;28;20130;-61
2022/04/07 10:32:12;;;;;;;0.85;0.80;;;8.30;99.90;;;;;;5071736;28;20362;-61
2022/04/07 10:34:42;;;;;;;0.60;0.60;;;8.30;99.90;;;;;;5074576;28;20031;-61
2022/04/07 10:37:09;;;;;;;1.95;0.90;;;8.50;99.90;;;;;;5076564;28;20416;-61
2022/04/07 10:39:39;;;;;;;1.05;0.70;;;8.40;99.90;;;;;;5075900;28;20487;-61
2022/04/07 10:42:05;;;;;;;0.60;0.60;;;8.60;99.90;;;;;;5078225;28;20028;-61
2022/04/07 10:44:33;;;;;;;0.65;0.65;;;8.70;99.90;;;;;;5072896;28;20032;-61
2022/04/07 10:47:07;;;;;;;1.67;1.08;;;8.80;99.90;;;;;;5073098;28;20119;-62
2022/04/07 10:49:33;;;;;;;1.15;0.82;;;8.90;99.90;;;;;;5076671;28;20089;-62
2022/04/07 10:52:04;;;;;;;1.33;1.00;;;9.30;99.90;;;;;;5073055;28;20548;-62
2022/04/07 10:54:30;;;;;;;2.40;1.13;;;9.70;99.90;;;;;;5078410;28;20020;-62
2022/04/07 10:57:01;;;;;;;2.15;0.80;;;10.00;99.90;;;;;;5071970;28;20040;-62
2022/04/07 10:59:34;;;;;;;0.50;0.50;;;10.20;99.90;;;;;;5057677;28;20025;-62
2022/04/07 11:02:11;;;;;;;1.27;0.80;;;10.60;99.90;;;;;;5070396;28;20062;-62
2022/04/07 11:05:10;;;;;;;1.17;0.70;;;11.00;99.90;;;;;;5075129;28;20107;-61
2022/04/07 11:07:51;;;;;;;0.77;0.70;;;11.80;99.90;;;;;;5074274;28;20028;-61
2022/04/07 11:10:37;;;;;;;0.57;0.52;;;12.20;99.90;;;;;;5079792;28;20289;-61
2022/04/07 11:13:03;;;;;;;1.67;1.00;;;12.30;99.90;;;;;;5079632;28;20115;-61
2022/04/07 11:15:34;;;;;;;1.17;0.80;;;12.60;99.90;;;;;;5078898;28;20462;-61
2022/04/07 11:18:24;;;;;;;1.48;0.63;;;13.30;99.90;;;;;;5080734;28;20024;-61
2022/04/07 11:21:08;;;;;;;2.33;1.00;;;13.50;99.90;;;;;;5077092;28;20024;-61
2022/04/07 11:23:51;;;;;;;3.20;1.00;;;12.80;99.90;;;;;;5075919;28;20601;-61
2022/04/07 11:26:27;;;;;;;1.73;0.80;;;12.80;99.90;;;;;;5078528;28;20044;-61
2022/04/07 11:29:06;;;;;;;0.40;0.40;;;13.80;99.90;;;;;;5064373;28;20510;-61
2022/04/07 11:32:04;;;;;;;0.95;0.65;;;14.60;99.90;;;;;;5081983;28;20270;-61
2022/04/07 11:34:36;;;;;;;2.28;0.98;;;14.00;99.90;;;;;;5080643;28;20123;-61
2022/04/07 11:37:20;;;;;;;0.70;0.65;;;14.00;99.90;;;;;;5076843;28;20024;-61
2022/04/07 11:39:48;;;;;;;0.75;0.60;;;13.80;99.90;;;;;;5073184;28;20028;-61
2022/04/07 11:42:16;;;;;;;0.65;0.65;;;13.40;99.90;;;;;;5075445;28;20515;-61
2022/04/07 11:44:43;;;;;;;1.45;0.70;;;13.60;99.90;;;;;;5075468;28;20072;-61
2022/04/07 11:47:22;;;;;;;0.85;0.70;;;14.60;99.90;;;;;;5079388;28;20020;-62
2022/04/07 11:49:49;;;;;;;0.98;0.68;;;14.20;99.90;;;;;;5076235;28;20039;-61
2022/04/07 11:52:15;;;;;;;1.13;0.70;;;13.50;99.90;;;;;;5079394;28;20028;-61
2022/04/07 11:54:41;;;;;;;1.00;0.70;;;12.90;99.90;;;;;;5078745;28;20398;-62
2022/04/07 11:57:08;;;;;;;0.60;0.60;;;12.30;99.90;;;;;;5073930;28;20374;-61
2022/04/07 11:59:37;;;;;;;1.38;1.00;;;12.10;99.90;;;;;;5073338;28;20060;-61
2022/04/07 12:02:03;;;;;;;1.58;0.80;;;11.80;99.90;;;;;;5076498;28;20032;-62
2022/04/07 12:04:32;;;;;;;0.55;0.55;;;11.90;99.90;;;;;;5077803;28;20024;-61
2022/04/07 12:07:01;;;;;;;1.17;0.70;;;12.20;99.90;;;;;;5082613;28;20486;-61
2022/04/07 12:09:27;;;;;;;0.60;0.60;;;13.20;99.90;;;;;;5085079;28;20012;-61
2022/04/07 12:11:53;;;;;;;2.05;0.88;;;12.60;99.90;;;;;;5076278;28;20028;-61
2022/04/07 12:14:24;;;;;;;1.63;1.05;;;12.10;99.90;;;;;;5076166;28;20031;-61
2022/04/07 12:16:50;;;;;;;0.60;0.60;;;11.90;99.90;;;;;;5076435;28;20107;-61
2022/04/07 12:19:18;;;;;;;1.17;0.77;;;11.90;99.90;;;;;;5081601;28;20449;-61
2022/04/07 12:21:54;;;;;;;2.13;0.88;;;11.90;99.90;;;;;;5080600;28;20476;-61
2022/04/07 12:24:21;;;;;;;2.30;0.90;;;11.90;99.90;;;;;;5080759;28;20035;-61
2022/04/07 12:26:48;;;;;;;0.63;0.63;;;12.10;99.90;;;;;;5081289;28;20037;-61
2022/04/07 12:29:19;;;;;;;3.10;1.00;;;12.60;99.90;;;;;;5064282;28;20055;-61
2022/04/07 12:31:45;;;;;;;1.38;0.77;;;13.10;99.90;;;;;;5078860;28;20024;-61
2022/04/07 12:34:13;;;;;;;2.47;1.20;;;13.50;99.90;;;;;;5078703;28;20028;-61
2022/04/07 12:36:42;;;;;;;2.28;1.17;;;13.60;99.90;;;;;;5077490;28;20077;-61
2022/04/07 12:39:12;;;;;;;0.50;0.50;;;13.90;99.90;;;;;;5080784;28;20052;-62
2022/04/07 12:41:41;;;;;;;6.03;1.27;;;14.50;99.90;;;;;;5078775;28;20032;-62
2022/04/07 12:44:08;;;;;;;0.73;0.60;;;15.90;99.90;;;;;;5083069;28;20367;-62
2022/04/07 12:46:58;;;;;;;1.58;0.77;;;15.50;97.90;;;;;;5069127;28;20025;-62
2022/04/07 12:49:31;;;;;;;1.13;0.77;;;14.30;99.90;;;;;;5076692;28;20379;-61
2022/04/07 12:52:08;;;;;;;1.45;0.82;;;13.30;99.90;;;;;;5075025;28;20055;-61
2022/04/07 12:54:34;;;;;;;3.63;1.17;;;12.80;99.90;;;;;;5075172;28;20105;-61
2022/04/07 12:57:33;;;;;;;3.65;1.35;;;11.60;99.90;;;;;;5075178;28;20024;-62
2022/04/07 13:00:02;;;;;;;5.53;1.83;;;10.20;99.90;;;;;;5036683;28;20040;-62